sensor_id;sensor_type;location;lat;lon;timestamp;temperature;humidity
49829;DHT22;35723;51.194;5.112;2024-02-16T00:00:23;15.40;99.90
49829;DHT22;35723;51.194;5.112;2024-02-16T00:02:49;15.30;99.90
49829;DHT22;35723;51.194;5.112;2024-02-16T00:05:15;15.30;99.90
49829;DHT22;35723;51.194;5.112;2024-02-16T00:07:41;15.30;99.90
49829;DHT22;35723;51.194;5.112;2024-02-16T00:10:07;15.30;99.90
49829;DHT22;35723;51.194;5.112;2024-02-16T00:12:34;15.30;99.90
49829;DHT22;35723;51.194;5.112;2024-02-16T00:15:01;15.30;99.90
49829;DHT22;35723;51.194;5.112;2024-02-16T00:17:27;15.30;99.90
49829;DHT22;35723;51.194;5.112;2024-02-16T00:19:53;15.30;99.90
49829;DHT22;35723;51.194;5.112;2024-02-16T00:22:19;15.30;99.90
49829;DHT22;35723;51.194;5.112;2024-02-16T00:24:45;15.20;99.90
49829;DHT22;35723;51.194;5.112;2024-02-16T00:27:10;15.20;99.90
49829;DHT22;35723;51.194;5.112;2024-02-16T00:29:36;15.30;99.90
49829;DHT22;35723;51.194;5.112;2024-02-16T00:32:04;15.30;99.90
49829;DHT22;35723;51.194;5.112;2024-02-16T00:34:32;15.30;99.90
49829;DHT22;35723;51.194;5.112;2024-02-16T00:36:58;15.30;99.90
49829;DHT22;35723;51.194;5.112;2024-02-16T00:39:23;15.30;99.90
49829;DHT22;35723;51.194;5.112;2024-02-16T00:41:50;15.30;99.90
49829;DHT22;35723;51.194;5.112;2024-02-16T00:44:16;15.30;99.90
49829;DHT22;35723;51.194;5.112;2024-02-16T00:46:43;15.30;99.90
49829;DHT22;35723;51.194;5.112;2024-02-16T00:49:09;15.20;99.90
49829;DHT22;35723;51.194;5.112;2024-02-16T00:51:36;15.30;99.90
49829;DHT22;35723;51.194;5.112;2024-02-16T00:54:02;15.30;99.90
49829;DHT22;35723;51.194;5.112;2024-02-16T00:56:29;15.20;99.90
49829;DHT22;35723;51.194;5.112;2024-02-16T00:58:55;15.20;99.90
49829;DHT22;35723;51.194;5.112;2024-02-16T01:01:20;15.20;99.90
49829;DHT22;35723;51.194;5.112;2024-02-16T01:03:48;15.20;99.90
49829;DHT22;35723;51.194;5.112;2024-02-16T01:06:14;15.20;99.90
49829;DHT22;35723;51.194;5.112;2024-02-16T01:08:40;15.20;99.90
49829;DHT22;35723;51.194;5.112;2024-02-16T01:11:06;15.20;99.90
49829;DHT22;35723;51.194;5.112;2024-02-16T01:13:33;15.20;99.90
49829;DHT22;35723;51.194;5.112;2024-02-16T01:15:59;15.20;99.90
49829;DHT22;35723;51.194;5.112;2024-02-16T01:18:25;15.20;99.90
49829;DHT22;35723;51.194;5.112;2024-02-16T01:20:51;15.10;99.90
49829;DHT22;35723;51.194;5.112;2024-02-16T01:23:17;15.10;99.90
49829;DHT22;35723;51.194;5.112;2024-02-16T01:25:43;15.10;99.90
49829;DHT22;35723;51.194;5.112;2024-02-16T01:28:08;15.20;99.90
49829;DHT22;35723;51.194;5.112;2024-02-16T01:30:34;15.20;99.90
49829;DHT22;35723;51.194;5.112;2024-02-16T01:33:00;15.20;99.90
49829;DHT22;35723;51.194;5.112;2024-02-16T01:35:25;15.20;99.90
49829;DHT22;35723;51.194;5.112;2024-02-16T01:37:51;15.10;99.90
49829;DHT22;35723;51.194;5.112;2024-02-16T01:40:16;15.10;99.90
49829;DHT22;35723;51.194;5.112;2024-02-16T01:42:49;15.20;99.90
49829;DHT22;35723;51.194;5.112;2024-02-16T01:45:14;15.10;99.90
49829;DHT22;35723;51.194;5.112;2024-02-16T01:47:42;15.10;99.90
49829;DHT22;35723;51.194;5.112;2024-02-16T01:50:09;15.10;99.90
49829;DHT22;35723;51.194;5.112;2024-02-16T01:52:36;15.10;99.90
49829;DHT22;35723;51.194;5.112;2024-02-16T01:55:05;15.10;99.90
49829;DHT22;35723;51.194;5.112;2024-02-16T01:57:42;15.10;99.90
49829;DHT22;35723;51.194;5.112;2024-02-16T02:00:08;15.10;99.90
49829;DHT22;35723;51.194;5.112;2024-02-16T02:02:35;15.10;99.90
49829;DHT22;35723;51.194;5.112;2024-02-16T02:05:01;15.10;99.90
49829;DHT22;35723;51.194;5.112;2024-02-16T02:07:27;15.10;99.90
49829;DHT22;35723;51.194;5.112;2024-02-16T02:09:53;15.10;99.90
49829;DHT22;35723;51.194;5.112;2024-02-16T02:12:20;15.00;99.90
49829;DHT22;35723;51.194;5.112;2024-02-16T02:14:45;15.10;99.90
49829;DHT22;35723;51.194;5.112;2024-02-16T02:17:14;15.10;99.90
49829;DHT22;35723;51.194;5.112;2024-02-16T02:19:40;15.10;99.90
49829;DHT22;35723;51.194;5.112;2024-02-16T02:22:32;15.10;99.90
49829;DHT22;35723;51.194;5.112;2024-02-16T02:24:58;15.10;99.90
49829;DHT22;35723;51.194;5.112;2024-02-16T02:27:23;15.10;99.90
49829;DHT22;35723;51.194;5.112;2024-02-16T02:29:49;15.10;99.90
49829;DHT22;35723;51.194;5.112;2024-02-16T02:32:15;15.10;99.90
49829;DHT22;35723;51.194;5.112;2024-02-16T02:34:41;15.10;99.90
49829;DHT22;35723;51.194;5.112;2024-02-16T02:37:06;15.10;99.90
49829;DHT22;35723;51.194;5.112;2024-02-16T02:39:32;15.10;99.90
49829;DHT22;35723;51.194;5.112;2024-02-16T02:41:58;15.00;99.90
49829;DHT22;35723;51.194;5.112;2024-02-16T02:44:24;15.10;99.90
49829;DHT22;35723;51.194;5.112;2024-02-16T02:46:50;15.00;99.90
49829;DHT22;35723;51.194;5.112;2024-02-16T02:49:17;15.00;99.90
49829;DHT22;35723;51.194;5.112;2024-02-16T02:51:42;15.10;99.90
49829;DHT22;35723;51.194;5.112;2024-02-16T02:54:08;15.10;99.90
49829;DHT22;35723;51.194;5.112;2024-02-16T02:56:34;15.10;99.90
49829;DHT22;35723;51.194;5.112;2024-02-16T02:59:00;15.00;99.90
49829;DHT22;35723;51.194;5.112;2024-02-16T03:01:25;15.00;99.90
49829;DHT22;35723;51.194;5.112;2024-02-16T03:03:51;15.00;99.90
49829;DHT22;35723;51.194;5.112;2024-02-16T03:06:20;15.00;99.90
49829;DHT22;35723;51.194;5.112;2024-02-16T03:08:46;15.00;99.90
49829;DHT22;35723;51.194;5.112;2024-02-16T03:11:12;15.10;99.90
49829;DHT22;35723;51.194;5.112;2024-02-16T03:13:38;15.10;99.90
49829;DHT22;35723;51.194;5.112;2024-02-16T03:16:04;15.10;99.90
49829;DHT22;35723;51.194;5.112;2024-02-16T03:18:33;15.10;99.90
49829;DHT22;35723;51.194;5.112;2024-02-16T03:20:59;15.10;99.90
49829;DHT22;35723;51.194;5.112;2024-02-16T03:23:25;15.10;99.90
49829;DHT22;35723;51.194;5.112;2024-02-16T03:25:51;15.10;99.90
49829;DHT22;35723;51.194;5.112;2024-02-16T03:28:17;15.10;99.90
49829;DHT22;35723;51.194;5.112;2024-02-16T03:30:43;15.00;99.90
49829;DHT22;35723;51.194;5.112;2024-02-16T03:33:10;15.10;99.90
49829;DHT22;35723;51.194;5.112;2024-02-16T03:35:36;15.10;99.90
49829;DHT22;35723;51.194;5.112;2024-02-16T03:38:03;15.10;99.90
49829;DHT22;35723;51.194;5.112;2024-02-16T03:40:28;15.10;99.90
49829;DHT22;35723;51.194;5.112;2024-02-16T03:42:54;15.10;99.90
49829;DHT22;35723;51.194;5.112;2024-02-16T03:45:21;15.00;99.90
49829;DHT22;35723;51.194;5.112;2024-02-16T03:47:47;15.00;99.90
49829;DHT22;35723;51.194;5.112;2024-02-16T03:50:18;14.90;99.90
49829;DHT22;35723;51.194;5.112;2024-02-16T03:52:44;15.00;99.90
49829;DHT22;35723;51.194;5.112;2024-02-16T03:55:09;15.10;99.90
49829;DHT22;35723;51.194;5.112;2024-02-16T03:57:35;15.10;99.90
49829;DHT22;35723;51.194;5.112;2024-02-16T04:00:01;15.10;99.90
49829;DHT22;35723;51.194;5.112;2024-02-16T04:02:28;15.20;99.90
49829;DHT22;35723;51.194;5.112;2024-02-16T04:04:53;15.10;99.90
49829;DHT22;35723;51.194;5.112;2024-02-16T04:07:19;15.10;99.90
49829;DHT22;35723;51.194;5.112;2024-02-16T04:09:45;15.10;99.90
49829;DHT22;35723;51.194;5.112;2024-02-16T04:12:10;15.10;99.90
49829;DHT22;35723;51.194;5.112;2024-02-16T04:14:36;15.10;99.90
49829;DHT22;35723;51.194;5.112;2024-02-16T04:17:02;15.10;99.90
49829;DHT22;35723;51.194;5.112;2024-02-16T04:19:28;15.10;99.90
49829;DHT22;35723;51.194;5.112;2024-02-16T04:21:54;15.10;99.90
49829;DHT22;35723;51.194;5.112;2024-02-16T04:24:20;15.10;99.90
49829;DHT22;35723;51.194;5.112;2024-02-16T04:26:45;15.20;99.90
49829;DHT22;35723;51.194;5.112;2024-02-16T04:29:11;15.20;99.90
49829;DHT22;35723;51.194;5.112;2024-02-16T04:31:40;15.20;99.90
49829;DHT22;35723;51.194;5.112;2024-02-16T04:34:08;15.10;99.90
49829;DHT22;35723;51.194;5.112;2024-02-16T04:36:34;15.20;99.90
49829;DHT22;35723;51.194;5.112;2024-02-16T04:39:00;15.20;99.90
49829;DHT22;35723;51.194;5.112;2024-02-16T04:41:25;15.10;99.90
49829;DHT22;35723;51.194;5.112;2024-02-16T04:43:51;15.10;99.90
49829;DHT22;35723;51.194;5.112;2024-02-16T04:46:17;15.10;99.90
49829;DHT22;35723;51.194;5.112;2024-02-16T04:48:43;15.10;99.90
49829;DHT22;35723;51.194;5.112;2024-02-16T04:51:10;15.10;99.90
49829;DHT22;35723;51.194;5.112;2024-02-16T04:53:36;15.10;99.90
49829;DHT22;35723;51.194;5.112;2024-02-16T04:56:01;15.10;99.90
49829;DHT22;35723;51.194;5.112;2024-02-16T04:58:28;15.10;99.90
49829;DHT22;35723;51.194;5.112;2024-02-16T05:00:53;15.20;99.90
49829;DHT22;35723;51.194;5.112;2024-02-16T05:03:19;15.20;99.90
49829;DHT22;35723;51.194;5.112;2024-02-16T05:05:44;15.20;99.90
49829;DHT22;35723;51.194;5.112;2024-02-16T05:08:11;15.20;99.90
49829;DHT22;35723;51.194;5.112;2024-02-16T05:10:36;15.20;99.90
49829;DHT22;35723;51.194;5.112;2024-02-16T05:13:03;15.20;99.90
49829;DHT22;35723;51.194;5.112;2024-02-16T05:15:29;15.10;99.90
49829;DHT22;35723;51.194;5.112;2024-02-16T05:17:54;15.10;99.90
49829;DHT22;35723;51.194;5.112;2024-02-16T05:20:23;15.10;99.90
49829;DHT22;35723;51.194;5.112;2024-02-16T05:22:48;15.20;99.90
49829;DHT22;35723;51.194;5.112;2024-02-16T05:25:15;15.20;99.90
49829;DHT22;35723;51.194;5.112;2024-02-16T05:27:41;15.20;99.90
49829;DHT22;35723;51.194;5.112;2024-02-16T05:30:10;15.20;99.90
49829;DHT22;35723;51.194;5.112;2024-02-16T05:32:36;15.20;99.90
49829;DHT22;35723;51.194;5.112;2024-02-16T05:35:03;15.20;99.90
49829;DHT22;35723;51.194;5.112;2024-02-16T05:37:45;15.30;99.90
49829;DHT22;35723;51.194;5.112;2024-02-16T05:40:19;15.20;99.90
49829;DHT22;35723;51.194;5.112;2024-02-16T05:42:56;15.20;99.90
49829;DHT22;35723;51.194;5.112;2024-02-16T05:45:23;15.20;99.90
49829;DHT22;35723;51.194;5.112;2024-02-16T05:47:50;15.20;99.90
49829;DHT22;35723;51.194;5.112;2024-02-16T05:50:16;15.20;99.90
49829;DHT22;35723;51.194;5.112;2024-02-16T05:52:43;15.20;99.90
49829;DHT22;35723;51.194;5.112;2024-02-16T05:55:10;15.20;99.90
49829;DHT22;35723;51.194;5.112;2024-02-16T05:57:37;15.30;99.90
49829;DHT22;35723;51.194;5.112;2024-02-16T06:00:07;15.20;99.90
49829;DHT22;35723;51.194;5.112;2024-02-16T06:02:33;15.20;99.90
49829;DHT22;35723;51.194;5.112;2024-02-16T06:05:00;15.20;99.90
49829;DHT22;35723;51.194;5.112;2024-02-16T06:07:28;15.20;99.90
49829;DHT22;35723;51.194;5.112;2024-02-16T06:09:55;15.20;99.90
49829;DHT22;35723;51.194;5.112;2024-02-16T06:12:21;15.20;99.90
49829;DHT22;35723;51.194;5.112;2024-02-16T06:14:46;15.20;99.90
49829;DHT22;35723;51.194;5.112;2024-02-16T06:17:14;15.10;99.90
49829;DHT22;35723;51.194;5.112;2024-02-16T06:19:43;15.10;99.90
49829;DHT22;35723;51.194;5.112;2024-02-16T06:22:09;15.10;99.90
49829;DHT22;35723;51.194;5.112;2024-02-16T06:24:35;15.00;99.90
49829;DHT22;35723;51.194;5.112;2024-02-16T06:27:01;14.90;99.90
49829;DHT22;35723;51.194;5.112;2024-02-16T06:29:28;14.90;99.90
49829;DHT22;35723;51.194;5.112;2024-02-16T06:31:55;15.00;99.90
49829;DHT22;35723;51.194;5.112;2024-02-16T06:34:20;15.10;99.90
49829;DHT22;35723;51.194;5.112;2024-02-16T06:36:46;15.10;99.90
49829;DHT22;35723;51.194;5.112;2024-02-16T06:39:12;15.10;99.90
49829;DHT22;35723;51.194;5.112;2024-02-16T06:41:42;15.00;99.90
49829;DHT22;35723;51.194;5.112;2024-02-16T06:44:09;14.80;99.90
49829;DHT22;35723;51.194;5.112;2024-02-16T06:46:35;14.80;99.90
49829;DHT22;35723;51.194;5.112;2024-02-16T06:49:00;14.90;99.90
49829;DHT22;35723;51.194;5.112;2024-02-16T06:51:26;14.80;99.90
49829;DHT22;35723;51.194;5.112;2024-02-16T06:53:54;14.90;99.90
49829;DHT22;35723;51.194;5.112;2024-02-16T06:56:20;15.00;99.90
49829;DHT22;35723;51.194;5.112;2024-02-16T06:58:46;15.10;99.90
49829;DHT22;35723;51.194;5.112;2024-02-16T07:01:16;15.10;99.90
49829;DHT22;35723;51.194;5.112;2024-02-16T07:03:44;15.10;99.90
49829;DHT22;35723;51.194;5.112;2024-02-16T07:06:11;15.10;99.90
49829;DHT22;35723;51.194;5.112;2024-02-16T07:08:42;15.10;99.90
49829;DHT22;35723;51.194;5.112;2024-02-16T07:11:09;15.10;99.90
49829;DHT22;35723;51.194;5.112;2024-02-16T07:13:39;15.10;99.90
49829;DHT22;35723;51.194;5.112;2024-02-16T07:16:06;15.10;99.90
49829;DHT22;35723;51.194;5.112;2024-02-16T07:18:34;15.10;99.90
49829;DHT22;35723;51.194;5.112;2024-02-16T07:21:00;15.20;99.90
49829;DHT22;35723;51.194;5.112;2024-02-16T07:23:26;15.10;99.90
49829;DHT22;35723;51.194;5.112;2024-02-16T07:25:52;15.10;99.90
49829;DHT22;35723;51.194;5.112;2024-02-16T07:28:24;15.00;99.90
49829;DHT22;35723;51.194;5.112;2024-02-16T07:30:51;15.00;99.90
49829;DHT22;35723;51.194;5.112;2024-02-16T07:33:17;15.10;99.90
49829;DHT22;35723;51.194;5.112;2024-02-16T07:35:43;15.00;99.90
49829;DHT22;35723;51.194;5.112;2024-02-16T07:38:09;15.00;99.90
49829;DHT22;35723;51.194;5.112;2024-02-16T07:40:35;15.00;99.90
49829;DHT22;35723;51.194;5.112;2024-02-16T07:43:01;15.10;99.90
49829;DHT22;35723;51.194;5.112;2024-02-16T07:45:27;15.00;99.90
49829;DHT22;35723;51.194;5.112;2024-02-16T07:47:52;15.00;99.90
49829;DHT22;35723;51.194;5.112;2024-02-16T07:50:19;15.10;99.90
49829;DHT22;35723;51.194;5.112;2024-02-16T07:52:46;15.10;99.90
49829;DHT22;35723;51.194;5.112;2024-02-16T07:55:11;15.10;99.90
49829;DHT22;35723;51.194;5.112;2024-02-16T07:57:37;15.00;99.90
49829;DHT22;35723;51.194;5.112;2024-02-16T08:00:06;15.00;99.90
49829;DHT22;35723;51.194;5.112;2024-02-16T08:02:32;15.00;99.90
49829;DHT22;35723;51.194;5.112;2024-02-16T08:04:58;15.10;99.90
49829;DHT22;35723;51.194;5.112;2024-02-16T08:07:24;15.10;99.90
49829;DHT22;35723;51.194;5.112;2024-02-16T08:09:50;15.20;99.90
49829;DHT22;35723;51.194;5.112;2024-02-16T08:12:16;15.20;99.90
49829;DHT22;35723;51.194;5.112;2024-02-16T08:14:42;15.20;99.90
49829;DHT22;35723;51.194;5.112;2024-02-16T08:17:08;15.30;99.90
49829;DHT22;35723;51.194;5.112;2024-02-16T08:19:36;15.20;99.90
49829;DHT22;35723;51.194;5.112;2024-02-16T08:22:07;15.20;99.90
49829;DHT22;35723;51.194;5.112;2024-02-16T08:24:37;15.10;99.90
49829;DHT22;35723;51.194;5.112;2024-02-16T08:27:03;14.30;99.90
49829;DHT22;35723;51.194;5.112;2024-02-16T08:29:30;14.40;99.90
49829;DHT22;35723;51.194;5.112;2024-02-16T08:31:56;14.40;99.90
49829;DHT22;35723;51.194;5.112;2024-02-16T08:34:22;14.60;99.90
49829;DHT22;35723;51.194;5.112;2024-02-16T08:36:48;14.60;99.90
49829;DHT22;35723;51.194;5.112;2024-02-16T08:39:15;14.80;99.90
49829;DHT22;35723;51.194;5.112;2024-02-16T08:41:42;14.90;99.90
49829;DHT22;35723;51.194;5.112;2024-02-16T08:44:09;14.90;99.90
49829;DHT22;35723;51.194;5.112;2024-02-16T08:46:36;15.10;99.90
49829;DHT22;35723;51.194;5.112;2024-02-16T08:49:02;15.10;99.90
49829;DHT22;35723;51.194;5.112;2024-02-16T08:51:28;15.20;99.90
49829;DHT22;35723;51.194;5.112;2024-02-16T08:53:54;15.30;99.90
49829;DHT22;35723;51.194;5.112;2024-02-16T08:56:20;15.40;99.90
49829;DHT22;35723;51.194;5.112;2024-02-16T08:58:46;15.40;99.90
49829;DHT22;35723;51.194;5.112;2024-02-16T09:01:11;15.40;99.90
49829;DHT22;35723;51.194;5.112;2024-02-16T09:03:37;15.50;99.90
49829;DHT22;35723;51.194;5.112;2024-02-16T09:06:05;15.50;99.90
49829;DHT22;35723;51.194;5.112;2024-02-16T09:08:32;15.60;99.90
49829;DHT22;35723;51.194;5.112;2024-02-16T09:11:00;15.50;99.90
49829;DHT22;35723;51.194;5.112;2024-02-16T09:13:26;15.60;99.90
49829;DHT22;35723;51.194;5.112;2024-02-16T09:15:51;15.70;99.90
49829;DHT22;35723;51.194;5.112;2024-02-16T09:18:17;15.70;99.90
49829;DHT22;35723;51.194;5.112;2024-02-16T09:20:43;15.70;99.90
49829;DHT22;35723;51.194;5.112;2024-02-16T09:23:09;15.80;99.90
49829;DHT22;35723;51.194;5.112;2024-02-16T09:25:35;15.80;99.90
49829;DHT22;35723;51.194;5.112;2024-02-16T09:28:01;15.80;99.90
49829;DHT22;35723;51.194;5.112;2024-02-16T09:30:27;15.70;99.90
49829;DHT22;35723;51.194;5.112;2024-02-16T09:32:54;15.60;99.90
49829;DHT22;35723;51.194;5.112;2024-02-16T09:35:19;15.70;99.90
49829;DHT22;35723;51.194;5.112;2024-02-16T09:37:45;15.60;99.90
49829;DHT22;35723;51.194;5.112;2024-02-16T09:40:14;15.60;99.90
49829;DHT22;35723;51.194;5.112;2024-02-16T09:42:40;15.60;99.90
49829;DHT22;35723;51.194;5.112;2024-02-16T09:45:07;15.70;99.90
49829;DHT22;35723;51.194;5.112;2024-02-16T09:47:33;15.60;99.90
49829;DHT22;35723;51.194;5.112;2024-02-16T09:50:00;15.60;99.90
49829;DHT22;35723;51.194;5.112;2024-02-16T09:52:26;15.60;99.90
49829;DHT22;35723;51.194;5.112;2024-02-16T09:54:52;15.60;99.90
49829;DHT22;35723;51.194;5.112;2024-02-16T09:57:18;15.60;99.90
49829;DHT22;35723;51.194;5.112;2024-02-16T09:59:44;15.50;99.90
49829;DHT22;35723;51.194;5.112;2024-02-16T10:02:10;15.60;99.90
49829;DHT22;35723;51.194;5.112;2024-02-16T10:04:36;15.60;99.90
49829;DHT22;35723;51.194;5.112;2024-02-16T10:07:02;15.60;99.90
49829;DHT22;35723;51.194;5.112;2024-02-16T10:09:28;15.60;99.90
49829;DHT22;35723;51.194;5.112;2024-02-16T10:11:58;15.60;99.90
49829;DHT22;35723;51.194;5.112;2024-02-16T10:14:23;15.50;99.90
49829;DHT22;35723;51.194;5.112;2024-02-16T10:17:05;15.50;99.90
49829;DHT22;35723;51.194;5.112;2024-02-16T10:19:32;15.40;99.90
49829;DHT22;35723;51.194;5.112;2024-02-16T10:22:12;15.40;99.90
49829;DHT22;35723;51.194;5.112;2024-02-16T10:24:38;15.40;99.90
49829;DHT22;35723;51.194;5.112;2024-02-16T10:27:05;15.40;99.90
49829;DHT22;35723;51.194;5.112;2024-02-16T10:29:32;15.50;99.90
49829;DHT22;35723;51.194;5.112;2024-02-16T10:31:59;15.50;99.90
49829;DHT22;35723;51.194;5.112;2024-02-16T10:34:26;15.40;99.90
49829;DHT22;35723;51.194;5.112;2024-02-16T10:36:54;15.40;99.90
49829;DHT22;35723;51.194;5.112;2024-02-16T10:39:20;15.40;99.90
49829;DHT22;35723;51.194;5.112;2024-02-16T10:41:47;15.40;99.90
49829;DHT22;35723;51.194;5.112;2024-02-16T10:44:14;15.50;99.90
49829;DHT22;35723;51.194;5.112;2024-02-16T10:46:40;15.50;99.90
49829;DHT22;35723;51.194;5.112;2024-02-16T10:49:05;15.50;99.90
49829;DHT22;35723;51.194;5.112;2024-02-16T10:52:00;15.40;99.90
49829;DHT22;35723;51.194;5.112;2024-02-16T10:54:30;15.30;99.90
49829;DHT22;35723;51.194;5.112;2024-02-16T10:56:57;15.30;99.90
49829;DHT22;35723;51.194;5.112;2024-02-16T10:59:23;15.30;99.90
49829;DHT22;35723;51.194;5.112;2024-02-16T11:02:00;15.30;99.90
49829;DHT22;35723;51.194;5.112;2024-02-16T11:04:39;15.30;99.90
49829;DHT22;35723;51.194;5.112;2024-02-16T11:07:12;15.40;99.90
49829;DHT22;35723;51.194;5.112;2024-02-16T11:09:39;15.50;99.90
49829;DHT22;35723;51.194;5.112;2024-02-16T11:12:06;15.40;99.90
49829;DHT22;35723;51.194;5.112;2024-02-16T11:14:42;15.20;99.90
49829;DHT22;35723;51.194;5.112;2024-02-16T11:17:19;15.20;99.90
49829;DHT22;35723;51.194;5.112;2024-02-16T11:19:46;15.20;99.90
49829;DHT22;35723;51.194;5.112;2024-02-16T11:22:16;15.20;99.90
49829;DHT22;35723;51.194;5.112;2024-02-16T11:24:47;15.20;99.90
49829;DHT22;35723;51.194;5.112;2024-02-16T11:27:13;15.20;99.90
49829;DHT22;35723;51.194;5.112;2024-02-16T11:29:45;15.20;99.90
49829;DHT22;35723;51.194;5.112;2024-02-16T11:32:11;15.00;99.90
49829;DHT22;35723;51.194;5.112;2024-02-16T11:34:37;15.10;99.90
49829;DHT22;35723;51.194;5.112;2024-02-16T11:37:05;14.90;99.90
49829;DHT22;35723;51.194;5.112;2024-02-16T11:39:31;14.90;99.90
49829;DHT22;35723;51.194;5.112;2024-02-16T11:42:05;15.00;99.90
49829;DHT22;35723;51.194;5.112;2024-02-16T11:44:32;14.90;99.90
49829;DHT22;35723;51.194;5.112;2024-02-16T11:46:58;14.90;99.90
49829;DHT22;35723;51.194;5.112;2024-02-16T11:49:24;15.00;99.90
49829;DHT22;35723;51.194;5.112;2024-02-16T11:51:50;15.10;99.90
49829;DHT22;35723;51.194;5.112;2024-02-16T11:54:16;15.20;99.90
49829;DHT22;35723;51.194;5.112;2024-02-16T11:56:46;15.00;99.90
49829;DHT22;35723;51.194;5.112;2024-02-16T11:59:15;14.70;99.90
49829;DHT22;35723;51.194;5.112;2024-02-16T12:01:54;14.70;99.90
49829;DHT22;35723;51.194;5.112;2024-02-16T12:04:25;14.60;99.90
49829;DHT22;35723;51.194;5.112;2024-02-16T12:07:01;14.70;99.90
49829;DHT22;35723;51.194;5.112;2024-02-16T12:09:28;14.60;99.90
49829;DHT22;35723;51.194;5.112;2024-02-16T12:11:54;14.60;99.90
49829;DHT22;35723;51.194;5.112;2024-02-16T12:14:24;14.60;99.90
49829;DHT22;35723;51.194;5.112;2024-02-16T12:16:56;14.70;99.90
49829;DHT22;35723;51.194;5.112;2024-02-16T12:19:22;14.60;99.90
49829;DHT22;35723;51.194;5.112;2024-02-16T12:21:51;14.60;99.90
49829;DHT22;35723;51.194;5.112;2024-02-16T12:24:18;14.60;99.90
49829;DHT22;35723;51.194;5.112;2024-02-16T12:26:43;14.60;99.90
49829;DHT22;35723;51.194;5.112;2024-02-16T12:29:09;14.70;99.90
49829;DHT22;35723;51.194;5.112;2024-02-16T12:31:41;14.60;99.90
49829;DHT22;35723;51.194;5.112;2024-02-16T12:34:07;14.70;99.90
49829;DHT22;35723;51.194;5.112;2024-02-16T12:36:38;14.60;99.90
49829;DHT22;35723;51.194;5.112;2024-02-16T12:39:05;14.70;99.90
49829;DHT22;35723;51.194;5.112;2024-02-16T12:41:35;14.70;99.90
49829;DHT22;35723;51.194;5.112;2024-02-16T12:44:04;14.70;99.90
49829;DHT22;35723;51.194;5.112;2024-02-16T12:46:31;14.60;99.90
49829;DHT22;35723;51.194;5.112;2024-02-16T12:48:57;14.70;99.90
49829;DHT22;35723;51.194;5.112;2024-02-16T12:51:22;14.80;99.90
49829;DHT22;35723;51.194;5.112;2024-02-16T12:53:48;14.70;99.90
49829;DHT22;35723;51.194;5.112;2024-02-16T12:56:14;14.80;99.90
49829;DHT22;35723;51.194;5.112;2024-02-16T12:58:40;14.80;99.90
49829;DHT22;35723;51.194;5.112;2024-02-16T13:01:06;14.80;99.90
49829;DHT22;35723;51.194;5.112;2024-02-16T13:03:34;14.80;99.90
49829;DHT22;35723;51.194;5.112;2024-02-16T13:06:00;14.70;99.90
49829;DHT22;35723;51.194;5.112;2024-02-16T13:08:26;14.70;99.90
49829;DHT22;35723;51.194;5.112;2024-02-16T13:10:51;14.60;99.90
49829;DHT22;35723;51.194;5.112;2024-02-16T13:13:17;14.70;99.90
49829;DHT22;35723;51.194;5.112;2024-02-16T13:15:43;14.60;99.90
49829;DHT22;35723;51.194;5.112;2024-02-16T13:18:08;14.50;99.90
49829;DHT22;35723;51.194;5.112;2024-02-16T13:20:34;14.40;99.90
49829;DHT22;35723;51.194;5.112;2024-02-16T13:23:01;14.40;99.90
49829;DHT22;35723;51.194;5.112;2024-02-16T13:25:26;14.50;99.90
49829;DHT22;35723;51.194;5.112;2024-02-16T13:27:52;14.50;99.90
49829;DHT22;35723;51.194;5.112;2024-02-16T13:30:18;14.50;99.90
49829;DHT22;35723;51.194;5.112;2024-02-16T13:32:43;14.20;99.90
49829;DHT22;35723;51.194;5.112;2024-02-16T13:35:09;14.30;99.90
49829;DHT22;35723;51.194;5.112;2024-02-16T13:37:35;14.40;99.90
49829;DHT22;35723;51.194;5.112;2024-02-16T13:40:02;14.00;99.90
49829;DHT22;35723;51.194;5.112;2024-02-16T13:42:33;13.90;99.90
49829;DHT22;35723;51.194;5.112;2024-02-16T13:44:59;14.10;99.90
49829;DHT22;35723;51.194;5.112;2024-02-16T13:47:24;14.20;99.90
49829;DHT22;35723;51.194;5.112;2024-02-16T13:49:50;14.30;99.90
49829;DHT22;35723;51.194;5.112;2024-02-16T13:52:17;14.20;99.90
49829;DHT22;35723;51.194;5.112;2024-02-16T13:54:43;14.00;99.90
49829;DHT22;35723;51.194;5.112;2024-02-16T13:57:09;14.10;99.90
49829;DHT22;35723;51.194;5.112;2024-02-16T13:59:34;14.20;99.90
49829;DHT22;35723;51.194;5.112;2024-02-16T14:02:00;14.40;99.90
49829;DHT22;35723;51.194;5.112;2024-02-16T14:04:27;14.60;99.90
49829;DHT22;35723;51.194;5.112;2024-02-16T14:06:53;14.70;99.90
49829;DHT22;35723;51.194;5.112;2024-02-16T14:09:19;14.50;99.90
49829;DHT22;35723;51.194;5.112;2024-02-16T14:11:48;14.20;99.90
49829;DHT22;35723;51.194;5.112;2024-02-16T14:14:13;14.10;99.90
49829;DHT22;35723;51.194;5.112;2024-02-16T14:16:39;14.10;99.90
49829;DHT22;35723;51.194;5.112;2024-02-16T14:19:05;14.20;99.90
49829;DHT22;35723;51.194;5.112;2024-02-16T14:21:31;14.10;99.90
49829;DHT22;35723;51.194;5.112;2024-02-16T14:23:58;14.10;99.90
49829;DHT22;35723;51.194;5.112;2024-02-16T14:26:24;14.20;99.90
49829;DHT22;35723;51.194;5.112;2024-02-16T14:28:50;14.30;99.90
49829;DHT22;35723;51.194;5.112;2024-02-16T14:31:15;14.10;99.90
49829;DHT22;35723;51.194;5.112;2024-02-16T14:33:42;14.00;99.90
49829;DHT22;35723;51.194;5.112;2024-02-16T14:36:09;13.80;99.90
49829;DHT22;35723;51.194;5.112;2024-02-16T14:38:35;13.80;99.90
49829;DHT22;35723;51.194;5.112;2024-02-16T14:41:01;13.90;99.90
49829;DHT22;35723;51.194;5.112;2024-02-16T14:43:32;13.80;99.90
49829;DHT22;35723;51.194;5.112;2024-02-16T14:46:01;14.00;99.90
49829;DHT22;35723;51.194;5.112;2024-02-16T14:48:29;14.10;99.90
49829;DHT22;35723;51.194;5.112;2024-02-16T14:50:55;14.30;99.90
49829;DHT22;35723;51.194;5.112;2024-02-16T14:53:21;14.30;99.90
49829;DHT22;35723;51.194;5.112;2024-02-16T14:55:48;14.40;99.90
49829;DHT22;35723;51.194;5.112;2024-02-16T14:58:13;14.30;99.90
49829;DHT22;35723;51.194;5.112;2024-02-16T15:00:39;14.30;99.90
49829;DHT22;35723;51.194;5.112;2024-02-16T15:03:05;14.40;99.90
49829;DHT22;35723;51.194;5.112;2024-02-16T15:05:31;14.60;99.90
49829;DHT22;35723;51.194;5.112;2024-02-16T15:07:57;14.70;99.90
49829;DHT22;35723;51.194;5.112;2024-02-16T15:10:22;14.70;99.90
49829;DHT22;35723;51.194;5.112;2024-02-16T15:12:49;14.40;99.90
49829;DHT22;35723;51.194;5.112;2024-02-16T15:15:14;14.40;99.90
49829;DHT22;35723;51.194;5.112;2024-02-16T15:17:40;14.40;99.90
49829;DHT22;35723;51.194;5.112;2024-02-16T15:20:07;14.40;99.90
49829;DHT22;35723;51.194;5.112;2024-02-16T15:22:33;14.50;99.90
49829;DHT22;35723;51.194;5.112;2024-02-16T15:24:59;14.70;99.90
49829;DHT22;35723;51.194;5.112;2024-02-16T15:27:24;14.70;99.90